sensor_id;sensor_type;location;lat;lon;timestamp;P1;durP1;ratioP1;P2;durP2;ratioP2
18142;SDS011;9197;50.930;3.140;2023-11-18T00:00:48;27.27;;;17.40;;
18142;SDS011;9197;50.930;3.140;2023-11-18T00:03:15;36.63;;;18.90;;
18142;SDS011;9197;50.930;3.140;2023-11-18T00:05:43;35.83;;;20.60;;
18142;SDS011;9197;50.930;3.140;2023-11-18T00:08:10;29.13;;;17.73;;
18142;SDS011;9197;50.930;3.140;2023-11-18T00:10:38;27.07;;;17.10;;
18142;SDS011;9197;50.930;3.140;2023-11-18T00:13:05;20.90;;;14.13;;
18142;SDS011;9197;50.930;3.140;2023-11-18T00:15:35;25.23;;;14.17;;
18142;SDS011;9197;50.930;3.140;2023-11-18T00:18:02;22.50;;;13.40;;
18142;SDS011;9197;50.930;3.140;2023-11-18T00:20:29;19.47;;;12.80;;
18142;SDS011;9197;50.930;3.140;2023-11-18T00:22:57;21.37;;;12.67;;
18142;SDS011;9197;50.930;3.140;2023-11-18T00:25:24;23.40;;;11.30;;
18142;SDS011;9197;50.930;3.140;2023-11-18T00:27:51;16.87;;;11.47;;
18142;SDS011;9197;50.930;3.140;2023-11-18T00:30:19;14.60;;;10.60;;
18142;SDS011;9197;50.930;3.140;2023-11-18T00:32:48;13.50;;;10.13;;
18142;SDS011;9197;50.930;3.140;2023-11-18T00:35:15;19.40;;;9.70;;
18142;SDS011;9197;50.930;3.140;2023-11-18T00:37:43;17.40;;;10.27;;
18142;SDS011;9197;50.930;3.140;2023-11-18T00:40:10;16.73;;;9.03;;
18142;SDS011;9197;50.930;3.140;2023-11-18T00:42:37;12.20;;;8.47;;
18142;SDS011;9197;50.930;3.140;2023-11-18T00:45:05;15.90;;;9.47;;
18142;SDS011;9197;50.930;3.140;2023-11-18T00:47:33;13.67;;;8.90;;
18142;SDS011;9197;50.930;3.140;2023-11-18T00:50:02;20.73;;;8.27;;
18142;SDS011;9197;50.930;3.140;2023-11-18T00:52:33;15.53;;;8.23;;
18142;SDS011;9197;50.930;3.140;2023-11-18T00:55:00;12.60;;;7.97;;
18142;SDS011;9197;50.930;3.140;2023-11-18T00:57:27;12.97;;;7.70;;
18142;SDS011;9197;50.930;3.140;2023-11-18T00:59:54;16.33;;;8.57;;
18142;SDS011;9197;50.930;3.140;2023-11-18T01:02:22;15.57;;;8.60;;
18142;SDS011;9197;50.930;3.140;2023-11-18T01:04:49;11.37;;;7.87;;
18142;SDS011;9197;50.930;3.140;2023-11-18T01:07:17;15.77;;;8.43;;
18142;SDS011;9197;50.930;3.140;2023-11-18T01:09:45;19.93;;;7.43;;
18142;SDS011;9197;50.930;3.140;2023-11-18T01:12:12;14.23;;;7.63;;
18142;SDS011;9197;50.930;3.140;2023-11-18T01:14:39;20.30;;;8.53;;
18142;SDS011;9197;50.930;3.140;2023-11-18T01:17:07;10.23;;;7.40;;
18142;SDS011;9197;50.930;3.140;2023-11-18T01:19:35;16.20;;;7.23;;
18142;SDS011;9197;50.930;3.140;2023-11-18T01:22:03;12.80;;;7.20;;
18142;SDS011;9197;50.930;3.140;2023-11-18T01:24:32;19.97;;;8.33;;
18142;SDS011;9197;50.930;3.140;2023-11-18T01:27:00;12.20;;;7.83;;
18142;SDS011;9197;50.930;3.140;2023-11-18T01:29:27;12.70;;;7.20;;
18142;SDS011;9197;50.930;3.140;2023-11-18T01:31:55;14.40;;;8.20;;
18142;SDS011;9197;50.930;3.140;2023-11-18T01:34:22;16.10;;;8.37;;
18142;SDS011;9197;50.930;3.140;2023-11-18T01:36:50;16.07;;;9.23;;
18142;SDS011;9197;50.930;3.140;2023-11-18T01:39:18;15.33;;;8.93;;
18142;SDS011;9197;50.930;3.140;2023-11-18T01:41:47;15.20;;;7.87;;
18142;SDS011;9197;50.930;3.140;2023-11-18T01:44:15;16.57;;;8.13;;
18142;SDS011;9197;50.930;3.140;2023-11-18T01:46:44;14.47;;;8.13;;
18142;SDS011;9197;50.930;3.140;2023-11-18T01:49:12;17.57;;;8.37;;
18142;SDS011;9197;50.930;3.140;2023-11-18T01:51:40;14.83;;;8.50;;
18142;SDS011;9197;50.930;3.140;2023-11-18T01:54:09;13.77;;;8.23;;
18142;SDS011;9197;50.930;3.140;2023-11-18T01:56:40;13.17;;;8.40;;
18142;SDS011;9197;50.930;3.140;2023-11-18T01:59:10;19.93;;;8.00;;
18142;SDS011;9197;50.930;3.140;2023-11-18T02:01:43;18.50;;;7.90;;
18142;SDS011;9197;50.930;3.140;2023-11-18T02:04:13;15.17;;;7.70;;
18142;SDS011;9197;50.930;3.140;2023-11-18T02:06:40;15.03;;;7.40;;
18142;SDS011;9197;50.930;3.140;2023-11-18T02:09:10;13.10;;;9.47;;
18142;SDS011;9197;50.930;3.140;2023-11-18T02:11:39;17.23;;;8.00;;
18142;SDS011;9197;50.930;3.140;2023-11-18T02:14:13;12.90;;;6.97;;
18142;SDS011;9197;50.930;3.140;2023-11-18T02:16:42;11.60;;;7.23;;
18142;SDS011;9197;50.930;3.140;2023-11-18T02:19:15;13.57;;;7.67;;
18142;SDS011;9197;50.930;3.140;2023-11-18T02:21:47;14.60;;;7.20;;
18142;SDS011;9197;50.930;3.140;2023-11-18T02:24:25;13.37;;;7.00;;
18142;SDS011;9197;50.930;3.140;2023-11-18T02:26:58;10.57;;;6.07;;
18142;SDS011;9197;50.930;3.140;2023-11-18T02:29:26;11.23;;;6.63;;
18142;SDS011;9197;50.930;3.140;2023-11-18T02:31:57;13.63;;;5.90;;
18142;SDS011;9197;50.930;3.140;2023-11-18T02:34:27;10.00;;;5.93;;
18142;SDS011;9197;50.930;3.140;2023-11-18T02:36:58;16.27;;;6.07;;
18142;SDS011;9197;50.930;3.140;2023-11-18T02:39:29;14.87;;;5.93;;
18142;SDS011;9197;50.930;3.140;2023-11-18T02:42:10;13.17;;;5.33;;
18142;SDS011;9197;50.930;3.140;2023-11-18T02:44:39;16.07;;;5.77;;
18142;SDS011;9197;50.930;3.140;2023-11-18T02:47:07;10.97;;;4.60;;
18142;SDS011;9197;50.930;3.140;2023-11-18T02:49:35;11.00;;;5.27;;
18142;SDS011;9197;50.930;3.140;2023-11-18T02:52:02;12.60;;;4.60;;
18142;SDS011;9197;50.930;3.140;2023-11-18T02:54:30;14.87;;;4.83;;
18142;SDS011;9197;50.930;3.140;2023-11-18T02:56:57;8.47;;;4.13;;
18142;SDS011;9197;50.930;3.140;2023-11-18T02:59:26;6.53;;;4.10;;
18142;SDS011;9197;50.930;3.140;2023-11-18T03:01:55;6.93;;;3.93;;
18142;SDS011;9197;50.930;3.140;2023-11-18T03:04:23;8.13;;;3.90;;
18142;SDS011;9197;50.930;3.140;2023-11-18T03:06:50;9.17;;;4.33;;
18142;SDS011;9197;50.930;3.140;2023-11-18T03:09:17;8.70;;;4.23;;
18142;SDS011;9197;50.930;3.140;2023-11-18T03:11:45;9.37;;;3.60;;
18142;SDS011;9197;50.930;3.140;2023-11-18T03:14:12;12.33;;;5.10;;
18142;SDS011;9197;50.930;3.140;2023-11-18T03:16:40;13.87;;;4.43;;
18142;SDS011;9197;50.930;3.140;2023-11-18T03:19:08;10.70;;;3.93;;
18142;SDS011;9197;50.930;3.140;2023-11-18T03:21:35;9.87;;;3.73;;
18142;SDS011;9197;50.930;3.140;2023-11-18T03:24:04;11.93;;;3.93;;
18142;SDS011;9197;50.930;3.140;2023-11-18T03:26:32;9.07;;;4.20;;
18142;SDS011;9197;50.930;3.140;2023-11-18T03:28:59;16.40;;;4.70;;
18142;SDS011;9197;50.930;3.140;2023-11-18T03:31:26;9.93;;;4.73;;
18142;SDS011;9197;50.930;3.140;2023-11-18T03:33:55;8.07;;;3.90;;
18142;SDS011;9197;50.930;3.140;2023-11-18T03:36:22;7.63;;;3.70;;
18142;SDS011;9197;50.930;3.140;2023-11-18T03:38:49;10.20;;;4.10;;
18142;SDS011;9197;50.930;3.140;2023-11-18T03:41:16;12.23;;;4.20;;
18142;SDS011;9197;50.930;3.140;2023-11-18T03:43:44;13.53;;;5.03;;
18142;SDS011;9197;50.930;3.140;2023-11-18T03:46:13;9.07;;;4.47;;
18142;SDS011;9197;50.930;3.140;2023-11-18T03:48:40;7.80;;;3.77;;
18142;SDS011;9197;50.930;3.140;2023-11-18T03:51:10;13.00;;;4.53;;
18142;SDS011;9197;50.930;3.140;2023-11-18T03:53:38;10.00;;;4.43;;
18142;SDS011;9197;50.930;3.140;2023-11-18T03:56:06;8.40;;;3.80;;
18142;SDS011;9197;50.930;3.140;2023-11-18T03:58:34;6.53;;;4.20;;
18142;SDS011;9197;50.930;3.140;2023-11-18T04:01:02;9.10;;;4.30;;
18142;SDS011;9197;50.930;3.140;2023-11-18T04:03:29;7.00;;;4.33;;
18142;SDS011;9197;50.930;3.140;2023-11-18T04:05:56;8.80;;;4.50;;
18142;SDS011;9197;50.930;3.140;2023-11-18T04:08:25;11.83;;;4.57;;
18142;SDS011;9197;50.930;3.140;2023-11-18T04:10:53;7.93;;;4.07;;
18142;SDS011;9197;50.930;3.140;2023-11-18T04:13:20;9.73;;;4.30;;
18142;SDS011;9197;50.930;3.140;2023-11-18T04:15:47;10.23;;;4.20;;
18142;SDS011;9197;50.930;3.140;2023-11-18T04:18:14;14.70;;;4.77;;
18142;SDS011;9197;50.930;3.140;2023-11-18T04:20:42;7.50;;;3.43;;
18142;SDS011;9197;50.930;3.140;2023-11-18T04:23:09;9.23;;;4.40;;
18142;SDS011;9197;50.930;3.140;2023-11-18T04:25:39;8.00;;;3.67;;
18142;SDS011;9197;50.930;3.140;2023-11-18T04:28:07;10.83;;;4.53;;
18142;SDS011;9197;50.930;3.140;2023-11-18T04:30:35;8.37;;;3.43;;
18142;SDS011;9197;50.930;3.140;2023-11-18T04:33:03;8.47;;;3.90;;
18142;SDS011;9197;50.930;3.140;2023-11-18T04:35:30;6.63;;;3.57;;
18142;SDS011;9197;50.930;3.140;2023-11-18T04:37:59;10.70;;;3.83;;
18142;SDS011;9197;50.930;3.140;2023-11-18T04:40:26;9.43;;;3.13;;
18142;SDS011;9197;50.930;3.140;2023-11-18T04:42:55;11.67;;;4.13;;
18142;SDS011;9197;50.930;3.140;2023-11-18T04:45:22;5.03;;;3.13;;
18142;SDS011;9197;50.930;3.140;2023-11-18T04:47:49;12.57;;;4.53;;
18142;SDS011;9197;50.930;3.140;2023-11-18T04:50:16;8.90;;;3.90;;
18142;SDS011;9197;50.930;3.140;2023-11-18T04:52:44;8.50;;;4.97;;
18142;SDS011;9197;50.930;3.140;2023-11-18T04:55:11;7.07;;;3.93;;
18142;SDS011;9197;50.930;3.140;2023-11-18T04:57:39;6.83;;;3.27;;
18142;SDS011;9197;50.930;3.140;2023-11-18T05:00:08;8.43;;;4.00;;
18142;SDS011;9197;50.930;3.140;2023-11-18T05:02:37;8.37;;;4.20;;
18142;SDS011;9197;50.930;3.140;2023-11-18T05:05:04;12.37;;;3.80;;
18142;SDS011;9197;50.930;3.140;2023-11-18T05:07:32;14.70;;;5.57;;
18142;SDS011;9197;50.930;3.140;2023-11-18T05:09:59;8.87;;;4.43;;
18142;SDS011;9197;50.930;3.140;2023-11-18T05:12:28;6.47;;;4.10;;
18142;SDS011;9197;50.930;3.140;2023-11-18T05:14:55;16.47;;;6.20;;
18142;SDS011;9197;50.930;3.140;2023-11-18T05:17:24;16.33;;;5.43;;
18142;SDS011;9197;50.930;3.140;2023-11-18T05:19:51;17.23;;;6.17;;
18142;SDS011;9197;50.930;3.140;2023-11-18T05:22:19;18.83;;;5.33;;
18142;SDS011;9197;50.930;3.140;2023-11-18T05:24:46;12.33;;;5.90;;
18142;SDS011;9197;50.930;3.140;2023-11-18T05:27:14;17.20;;;6.10;;
18142;SDS011;9197;50.930;3.140;2023-11-18T05:29:42;10.47;;;4.50;;
18142;SDS011;9197;50.930;3.140;2023-11-18T05:32:13;10.13;;;4.60;;
18142;SDS011;9197;50.930;3.140;2023-11-18T05:34:42;10.87;;;4.53;;
18142;SDS011;9197;50.930;3.140;2023-11-18T05:37:09;12.77;;;4.30;;
18142;SDS011;9197;50.930;3.140;2023-11-18T05:39:36;10.43;;;4.20;;
18142;SDS011;9197;50.930;3.140;2023-11-18T05:42:08;5.57;;;3.67;;
18142;SDS011;9197;50.930;3.140;2023-11-18T05:44:36;9.33;;;4.30;;
18142;SDS011;9197;50.930;3.140;2023-11-18T05:47:04;7.13;;;3.93;;
18142;SDS011;9197;50.930;3.140;2023-11-18T05:49:32;9.40;;;4.17;;
18142;SDS011;9197;50.930;3.140;2023-11-18T05:52:01;11.10;;;4.13;;
18142;SDS011;9197;50.930;3.140;2023-11-18T05:54:28;10.23;;;3.80;;
18142;SDS011;9197;50.930;3.140;2023-11-18T05:56:55;9.33;;;3.47;;
18142;SDS011;9197;50.930;3.140;2023-11-18T05:59:24;6.10;;;3.93;;
18142;SDS011;9197;50.930;3.140;2023-11-18T06:01:52;8.43;;;4.33;;
18142;SDS011;9197;50.930;3.140;2023-11-18T06:04:19;3.90;;;3.50;;
18142;SDS011;9197;50.930;3.140;2023-11-18T06:06:46;12.13;;;4.20;;
18142;SDS011;9197;50.930;3.140;2023-11-18T06:09:15;11.27;;;4.53;;
18142;SDS011;9197;50.930;3.140;2023-11-18T06:11:46;9.93;;;3.70;;
18142;SDS011;9197;50.930;3.140;2023-11-18T06:14:14;6.70;;;3.97;;
18142;SDS011;9197;50.930;3.140;2023-11-18T06:16:43;8.93;;;4.13;;
18142;SDS011;9197;50.930;3.140;2023-11-18T06:19:10;7.27;;;4.33;;
18142;SDS011;9197;50.930;3.140;2023-11-18T06:21:37;11.93;;;4.17;;
18142;SDS011;9197;50.930;3.140;2023-11-18T06:24:06;6.60;;;4.30;;
18142;SDS011;9197;50.930;3.140;2023-11-18T06:26:37;9.40;;;4.40;;
18142;SDS011;9197;50.930;3.140;2023-11-18T06:29:04;5.53;;;4.50;;
18142;SDS011;9197;50.930;3.140;2023-11-18T06:31:32;11.43;;;4.63;;
18142;SDS011;9197;50.930;3.140;2023-11-18T06:33:59;8.73;;;4.10;;
18142;SDS011;9197;50.930;3.140;2023-11-18T06:36:27;11.17;;;3.83;;
18142;SDS011;9197;50.930;3.140;2023-11-18T06:38:56;6.53;;;3.87;;
18142;SDS011;9197;50.930;3.140;2023-11-18T06:41:24;6.03;;;3.97;;
18142;SDS011;9197;50.930;3.140;2023-11-18T06:44:00;8.60;;;4.97;;
18142;SDS011;9197;50.930;3.140;2023-11-18T06:46:34;10.57;;;5.10;;
18142;SDS011;9197;50.930;3.140;2023-11-18T06:49:04;8.37;;;4.40;;
18142;SDS011;9197;50.930;3.140;2023-11-18T06:51:33;14.53;;;4.97;;
18142;SDS011;9197;50.930;3.140;2023-11-18T06:54:03;12.10;;;5.37;;
18142;SDS011;9197;50.930;3.140;2023-11-18T06:56:34;11.93;;;5.80;;
18142;SDS011;9197;50.930;3.140;2023-11-18T06:59:04;12.93;;;5.93;;
18142;SDS011;9197;50.930;3.140;2023-11-18T07:01:32;11.70;;;4.83;;
18142;SDS011;9197;50.930;3.140;2023-11-18T07:04:00;11.37;;;6.17;;
18142;SDS011;9197;50.930;3.140;2023-11-18T07:06:28;13.80;;;7.10;;
18142;SDS011;9197;50.930;3.140;2023-11-18T07:08:56;18.27;;;8.23;;
18142;SDS011;9197;50.930;3.140;2023-11-18T07:11:25;12.67;;;6.73;;
18142;SDS011;9197;50.930;3.140;2023-11-18T07:13:52;10.30;;;6.97;;
18142;SDS011;9197;50.930;3.140;2023-11-18T07:16:23;13.03;;;6.70;;
18142;SDS011;9197;50.930;3.140;2023-11-18T07:18:50;15.43;;;7.30;;
18142;SDS011;9197;50.930;3.140;2023-11-18T07:21:18;15.10;;;8.77;;
18142;SDS011;9197;50.930;3.140;2023-11-18T07:23:45;13.33;;;8.67;;
18142;SDS011;9197;50.930;3.140;2023-11-18T07:26:12;17.13;;;10.00;;
18142;SDS011;9197;50.930;3.140;2023-11-18T07:28:40;12.07;;;8.03;;
18142;SDS011;9197;50.930;3.140;2023-11-18T07:31:09;8.90;;;6.90;;
18142;SDS011;9197;50.930;3.140;2023-11-18T07:33:37;15.87;;;9.80;;
18142;SDS011;9197;50.930;3.140;2023-11-18T07:36:05;20.67;;;7.63;;
18142;SDS011;9197;50.930;3.140;2023-11-18T07:38:36;15.17;;;9.13;;
18142;SDS011;9197;50.930;3.140;2023-11-18T07:41:03;17.70;;;9.73;;
18142;SDS011;9197;50.930;3.140;2023-11-18T07:43:33;17.10;;;9.93;;
18142;SDS011;9197;50.930;3.140;2023-11-18T07:46:01;15.00;;;9.50;;
18142;SDS011;9197;50.930;3.140;2023-11-18T07:48:28;18.03;;;9.53;;
18142;SDS011;9197;50.930;3.140;2023-11-18T07:50:57;14.60;;;9.37;;
18142;SDS011;9197;50.930;3.140;2023-11-18T07:53:25;14.83;;;10.03;;
18142;SDS011;9197;50.930;3.140;2023-11-18T07:55:54;19.60;;;10.47;;
18142;SDS011;9197;50.930;3.140;2023-11-18T07:58:21;17.43;;;11.27;;
18142;SDS011;9197;50.930;3.140;2023-11-18T08:00:48;15.53;;;10.43;;
18142;SDS011;9197;50.930;3.140;2023-11-18T08:03:16;12.70;;;10.90;;
18142;SDS011;9197;50.930;3.140;2023-11-18T08:05:44;18.33;;;11.50;;
18142;SDS011;9197;50.930;3.140;2023-11-18T08:08:13;23.07;;;11.67;;
18142;SDS011;9197;50.930;3.140;2023-11-18T08:10:42;13.83;;;9.70;;
18142;SDS011;9197;50.930;3.140;2023-11-18T08:13:10;18.47;;;11.73;;
18142;SDS011;9197;50.930;3.140;2023-11-18T08:15:38;14.87;;;10.73;;
18142;SDS011;9197;50.930;3.140;2023-11-18T08:18:06;15.03;;;10.73;;
18142;SDS011;9197;50.930;3.140;2023-11-18T08:20:35;20.40;;;10.57;;
18142;SDS011;9197;50.930;3.140;2023-11-18T08:23:02;18.00;;;11.73;;
18142;SDS011;9197;50.930;3.140;2023-11-18T08:25:31;14.57;;;10.47;;
18142;SDS011;9197;50.930;3.140;2023-11-18T08:27:59;12.70;;;8.53;;
18142;SDS011;9197;50.930;3.140;2023-11-18T08:30:26;13.20;;;8.67;;
18142;SDS011;9197;50.930;3.140;2023-11-18T08:32:54;14.00;;;9.13;;
18142;SDS011;9197;50.930;3.140;2023-11-18T08:35:21;15.07;;;9.27;;
18142;SDS011;9197;50.930;3.140;2023-11-18T08:37:48;9.13;;;8.30;;
18142;SDS011;9197;50.930;3.140;2023-11-18T08:40:16;12.70;;;9.73;;
18142;SDS011;9197;50.930;3.140;2023-11-18T08:42:48;12.30;;;9.83;;
18142;SDS011;9197;50.930;3.140;2023-11-18T08:45:19;16.90;;;9.70;;
18142;SDS011;9197;50.930;3.140;2023-11-18T08:47:47;15.97;;;8.40;;
18142;SDS011;9197;50.930;3.140;2023-11-18T08:50:14;13.50;;;8.80;;
18142;SDS011;9197;50.930;3.140;2023-11-18T08:52:41;10.93;;;7.77;;
18142;SDS011;9197;50.930;3.140;2023-11-18T08:55:12;10.57;;;7.80;;
18142;SDS011;9197;50.930;3.140;2023-11-18T08:57:42;11.77;;;9.43;;
18142;SDS011;9197;50.930;3.140;2023-11-18T09:00:25;12.63;;;8.23;;
18142;SDS011;9197;50.930;3.140;2023-11-18T09:03:11;8.60;;;7.70;;
18142;SDS011;9197;50.930;3.140;2023-11-18T09:05:43;9.73;;;8.10;;
18142;SDS011;9197;50.930;3.140;2023-11-18T09:08:22;12.57;;;8.03;;
18142;SDS011;9197;50.930;3.140;2023-11-18T09:10:57;11.70;;;8.10;;
18142;SDS011;9197;50.930;3.140;2023-11-18T09:13:25;11.33;;;7.10;;
18142;SDS011;9197;50.930;3.140;2023-11-18T09:15:56;9.60;;;6.20;;
18142;SDS011;9197;50.930;3.140;2023-11-18T09:18:25;9.50;;;7.67;;
18142;SDS011;9197;50.930;3.140;2023-11-18T09:20:53;12.60;;;6.97;;
18142;SDS011;9197;50.930;3.140;2023-11-18T09:23:21;7.53;;;6.87;;
18142;SDS011;9197;50.930;3.140;2023-11-18T09:25:50;10.73;;;7.70;;
18142;SDS011;9197;50.930;3.140;2023-11-18T09:28:18;12.90;;;7.67;;
18142;SDS011;9197;50.930;3.140;2023-11-18T09:30:46;8.43;;;6.10;;
18142;SDS011;9197;50.930;3.140;2023-11-18T09:33:20;9.80;;;7.50;;
18142;SDS011;9197;50.930;3.140;2023-11-18T09:35:54;5.80;;;5.00;;
18142;SDS011;9197;50.930;3.140;2023-11-18T09:38:24;7.93;;;5.53;;
18142;SDS011;9197;50.930;3.140;2023-11-18T09:40:54;11.70;;;7.17;;
18142;SDS011;9197;50.930;3.140;2023-11-18T09:43:21;10.13;;;6.60;;
18142;SDS011;9197;50.930;3.140;2023-11-18T09:45:53;9.60;;;6.53;;
18142;SDS011;9197;50.930;3.140;2023-11-18T09:48:24;8.60;;;6.00;;
18142;SDS011;9197;50.930;3.140;2023-11-18T09:50:52;7.77;;;6.70;;
18142;SDS011;9197;50.930;3.140;2023-11-18T09:53:19;9.70;;;7.00;;
18142;SDS011;9197;50.930;3.140;2023-11-18T09:55:53;8.17;;;7.23;;
18142;SDS011;9197;50.930;3.140;2023-11-18T09:58:29;9.50;;;6.00;;
18142;SDS011;9197;50.930;3.140;2023-11-18T10:01:06;12.03;;;6.37;;
18142;SDS011;9197;50.930;3.140;2023-11-18T10:03:40;6.67;;;5.53;;
18142;SDS011;9197;50.930;3.140;2023-11-18T10:06:11;9.10;;;6.80;;
18142;SDS011;9197;50.930;3.140;2023-11-18T10:08:40;7.53;;;6.03;;
18142;SDS011;9197;50.930;3.140;2023-11-18T10:11:11;8.93;;;6.03;;
18142;SDS011;9197;50.930;3.140;2023-11-18T10:13:38;7.40;;;5.80;;
18142;SDS011;9197;50.930;3.140;2023-11-18T10:16:09;6.80;;;5.00;;
18142;SDS011;9197;50.930;3.140;2023-11-18T10:18:37;7.37;;;5.00;;
18142;SDS011;9197;50.930;3.140;2023-11-18T10:21:14;6.40;;;4.57;;
18142;SDS011;9197;50.930;3.140;2023-11-18T10:26:27;6.03;;;4.23;;
18142;SDS011;9197;50.930;3.140;2023-11-18T10:28:57;5.67;;;4.80;;
18142;SDS011;9197;50.930;3.140;2023-11-18T10:31:32;9.17;;;4.20;;
18142;SDS011;9197;50.930;3.140;2023-11-18T10:34:01;5.47;;;4.30;;
18142;SDS011;9197;50.930;3.140;2023-11-18T10:36:30;6.80;;;4.20;;
18142;SDS011;9197;50.930;3.140;2023-11-18T10:38:58;4.10;;;3.70;;
18142;SDS011;9197;50.930;3.140;2023-11-18T10:41:41;3.80;;;3.50;;
18142;SDS011;9197;50.930;3.140;2023-11-18T10:44:12;4.17;;;3.47;;
18142;SDS011;9197;50.930;3.140;2023-11-18T10:46:50;4.03;;;3.70;;
18142;SDS011;9197;50.930;3.140;2023-11-18T10:49:21;3.80;;;3.50;;
18142;SDS011;9197;50.930;3.140;2023-11-18T10:51:50;5.87;;;4.77;;
18142;SDS011;9197;50.930;3.140;2023-11-18T10:54:17;4.33;;;3.93;;
18142;SDS011;9197;50.930;3.140;2023-11-18T10:56:48;6.30;;;5.70;;
18142;SDS011;9197;50.930;3.140;2023-11-18T10:59:16;5.57;;;5.17;;
18142;SDS011;9197;50.930;3.140;2023-11-18T11:01:43;5.53;;;4.97;;
18142;SDS011;9197;50.930;3.140;2023-11-18T11:04:14;4.57;;;4.17;;
18142;SDS011;9197;50.930;3.140;2023-11-18T11:06:47;4.57;;;4.13;;
18142;SDS011;9197;50.930;3.140;2023-11-18T11:09:18;18.97;;;6.47;;
18142;SDS011;9197;50.930;3.140;2023-11-18T11:11:50;5.40;;;4.43;;
18142;SDS011;9197;50.930;3.140;2023-11-18T11:14:20;4.40;;;4.00;;
18142;SDS011;9197;50.930;3.140;2023-11-18T11:16:51;4.70;;;4.20;;
18142;SDS011;9197;50.930;3.140;2023-11-18T11:19:24;4.80;;;4.40;;
18142;SDS011;9197;50.930;3.140;2023-11-18T11:21:59;5.23;;;4.33;;
18142;SDS011;9197;50.930;3.140;2023-11-18T11:24:35;7.20;;;3.60;;
18142;SDS011;9197;50.930;3.140;2023-11-18T11:27:14;4.23;;;3.90;;
18142;SDS011;9197;50.930;3.140;2023-11-18T11:29:56;8.43;;;6.50;;
18142;SDS011;9197;50.930;3.140;2023-11-18T11:32:35;8.00;;;6.80;;
18142;SDS011;9197;50.930;3.140;2023-11-18T11:35:14;11.57;;;9.10;;
18142;SDS011;9197;50.930;3.140;2023-11-18T11:37:48;20.00;;;12.53;;
18142;SDS011;9197;50.930;3.140;2023-11-18T11:40:16;6.53;;;5.37;;
18142;SDS011;9197;50.930;3.140;2023-11-18T11:42:48;5.60;;;4.47;;
18142;SDS011;9197;50.930;3.140;2023-11-18T11:45:21;5.47;;;3.23;;
18142;SDS011;9197;50.930;3.140;2023-11-18T11:47:53;7.27;;;5.67;;
18142;SDS011;9197;50.930;3.140;2023-11-18T11:50:38;4.13;;;3.83;;
18142;SDS011;9197;50.930;3.140;2023-11-18T11:53:19;3.63;;;3.17;;
18142;SDS011;9197;50.930;3.140;2023-11-18T11:55:51;5.73;;;5.17;;
18142;SDS011;9197;50.930;3.140;2023-11-18T11:58:30;3.77;;;3.43;;
18142;SDS011;9197;50.930;3.140;2023-11-18T12:01:00;4.07;;;3.77;;
18142;SDS011;9197;50.930;3.140;2023-11-18T12:03:32;5.60;;;5.10;;
18142;SDS011;9197;50.930;3.140;2023-11-18T12:06:05;3.50;;;3.23;;
18142;SDS011;9197;50.930;3.140;2023-11-18T12:08:36;3.07;;;2.87;;
18142;SDS011;9197;50.930;3.140;2023-11-18T12:11:05;4.27;;;3.87;;
18142;SDS011;9197;50.930;3.140;2023-11-18T12:13:35;4.50;;;3.30;;
18142;SDS011;9197;50.930;3.140;2023-11-18T12:16:06;7.23;;;5.13;;
18142;SDS011;9197;50.930;3.140;2023-11-18T12:18:35;4.43;;;4.03;;
18142;SDS011;9197;50.930;3.140;2023-11-18T12:21:03;4.70;;;4.00;;
18142;SDS011;9197;50.930;3.140;2023-11-18T12:23:30;4.67;;;3.77;;
18142;SDS011;9197;50.930;3.140;2023-11-18T12:26:00;5.53;;;4.87;;
18142;SDS011;9197;50.930;3.140;2023-11-18T12:28:28;5.10;;;4.70;;
18142;SDS011;9197;50.930;3.140;2023-11-18T12:31:00;5.23;;;4.67;;
18142;SDS011;9197;50.930;3.140;2023-11-18T12:36:47;6.70;;;6.20;;
18142;SDS011;9197;50.930;3.140;2023-11-18T12:39:48;4.07;;;3.77;;
18142;SDS011;9197;50.930;3.140;2023-11-18T12:43:00;5.40;;;4.90;;
18142;SDS011;9197;50.930;3.140;2023-11-18T12:48:41;5.70;;;5.30;;
18142;SDS011;9197;50.930;3.140;2023-11-18T12:51:12;5.53;;;5.03;;
18142;SDS011;9197;50.930;3.140;2023-11-18T12:53:47;5.10;;;4.70;;
18142;SDS011;9197;50.930;3.140;2023-11-18T12:56:18;7.43;;;6.73;;
18142;SDS011;9197;50.930;3.140;2023-11-18T12:58:49;6.73;;;5.90;;
18142;SDS011;9197;50.930;3.140;2023-11-18T13:01:17;6.63;;;6.00;;
18142;SDS011;9197;50.930;3.140;2023-11-18T13:03:44;6.43;;;5.93;;
18142;SDS011;9197;50.930;3.140;2023-11-18T13:06:12;6.87;;;6.17;;
18142;SDS011;9197;50.930;3.140;2023-11-18T13:08:39;6.63;;;6.10;;
18142;SDS011;9197;50.930;3.140;2023-11-18T13:11:07;7.13;;;6.53;;
18142;SDS011;9197;50.930;3.140;2023-11-18T13:13:41;5.70;;;5.20;;
18142;SDS011;9197;50.930;3.140;2023-11-18T13:16:09;7.40;;;6.10;;
18142;SDS011;9197;50.930;3.140;2023-11-18T13:18:42;7.50;;;6.80;;
18142;SDS011;9197;50.930;3.140;2023-11-18T13:21:13;6.77;;;6.10;;
18142;SDS011;9197;50.930;3.140;2023-11-18T13:37:25;5.80;;;5.40;;
18142;SDS011;9197;50.930;3.140;2023-11-18T13:39:53;9.77;;;8.87;;
18142;SDS011;9197;50.930;3.140;2023-11-18T13:42:21;7.43;;;6.67;;
18142;SDS011;9197;50.930;3.140;2023-11-18T13:44:49;9.80;;;8.73;;
18142;SDS011;9197;50.930;3.140;2023-11-18T13:47:18;8.17;;;7.40;;
18142;SDS011;9197;50.930;3.140;2023-11-18T13:49:45;8.70;;;7.83;;
18142;SDS011;9197;50.930;3.140;2023-11-18T13:52:15;9.27;;;7.80;;
18142;SDS011;9197;50.930;3.140;2023-11-18T13:54:46;8.03;;;7.03;;
18142;SDS011;9197;50.930;3.140;2023-11-18T13:57:15;5.80;;;5.30;;
18142;SDS011;9197;50.930;3.140;2023-11-18T13:59:42;6.60;;;5.90;;
18142;SDS011;9197;50.930;3.140;2023-11-18T14:02:09;6.20;;;5.60;;
18142;SDS011;9197;50.930;3.140;2023-11-18T14:04:38;5.73;;;5.23;;
18142;SDS011;9197;50.930;3.140;2023-11-18T14:07:08;6.10;;;5.50;;
18142;SDS011;9197;50.930;3.140;2023-11-18T14:09:37;6.63;;;6.03;;
18142;SDS011;9197;50.930;3.140;2023-11-18T14:12:07;5.43;;;4.90;;
18142;SDS011;9197;50.930;3.140;2023-11-18T14:14:35;6.07;;;5.50;;
18142;SDS011;9197;50.930;3.140;2023-11-18T14:17:02;5.80;;;5.30;;
18142;SDS011;9197;50.930;3.140;2023-11-18T14:19:31;7.90;;;5.70;;
18142;SDS011;9197;50.930;3.140;2023-11-18T14:22:00;5.87;;;5.37;;
18142;SDS011;9197;50.930;3.140;2023-11-18T14:24:29;6.00;;;5.37;;
18142;SDS011;9197;50.930;3.140;2023-11-18T14:26:57;6.20;;;5.60;;
18142;SDS011;9197;50.930;3.140;2023-11-18T14:29:25;6.30;;;5.80;;
18142;SDS011;9197;50.930;3.140;2023-11-18T14:31:52;5.00;;;4.60;;
18142;SDS011;9197;50.930;3.140;2023-11-18T14:34:20;5.60;;;5.10;;
18142;SDS011;9197;50.930;3.140;2023-11-18T14:36:47;6.83;;;5.63;;
18142;SDS011;9197;50.930;3.140;2023-11-18T14:39:14;4.30;;;3.73;;
18142;SDS011;9197;50.930;3.140;2023-11-18T14:41:43;5.27;;;4.87;;
18142;SDS011;9197;50.930;3.140;2023-11-18T14:44:10;6.33;;;5.83;;
18142;SDS011;9197;50.930;3.140;2023-11-18T14:46:39;6.57;;;5.97;;
18142;SDS011;9197;50.930;3.140;2023-11-18T14:49:06;14.20;;;12.17;;
18142;SDS011;9197;50.930;3.140;2023-11-18T14:51:35;13.10;;;11.77;;
18142;SDS011;9197;50.930;3.140;2023-11-18T14:54:02;10.20;;;9.17;;
18142;SDS011;9197;50.930;3.140;2023-11-18T14:56:30;6.83;;;6.13;;
18142;SDS011;9197;50.930;3.140;2023-11-18T14:58:57;7.00;;;6.40;;
18142;SDS011;9197;50.930;3.140;2023-11-18T15:01:25;7.73;;;6.27;;
18142;SDS011;9197;50.930;3.140;2023-11-18T15:03:53;4.97;;;4.57;;
18142;SDS011;9197;50.930;3.140;2023-11-18T15:06:24;5.20;;;4.77;;
18142;SDS011;9197;50.930;3.140;2023-11-18T15:08:52;4.97;;;4.57;;
18142;SDS011;9197;50.930;3.140;2023-11-18T15:11:21;5.00;;;4.50;;
18142;SDS011;9197;50.930;3.140;2023-11-18T15:13:49;5.13;;;4.70;;
18142;SDS011;9197;50.930;3.140;2023-11-18T15:16:17;4.10;;;3.80;;
18142;SDS011;9197;50.930;3.140;2023-11-18T15:18:44;5.13;;;4.63;;
18142;SDS011;9197;50.930;3.140;2023-11-18T15:21:14;4.10;;;3.80;;
18142;SDS011;9197;50.930;3.140;2023-11-18T15:23:41;4.67;;;4.27;;
18142;SDS011;9197;50.930;3.140;2023-11-18T15:26:08;4.87;;;4.47;;
18142;SDS011;9197;50.930;3.140;2023-11-18T15:28:35;5.10;;;4.60;;